createdAt,value
2023-05-11T00:00:44.883Z,49.18
2023-05-11T00:05:49.971Z,49.70
2023-05-11T00:10:53.027Z,49.92
2023-05-11T00:15:56.111Z,50.03
2023-05-11T00:20:59.108Z,50.19
2023-05-11T00:26:02.029Z,50.71
2023-05-11T00:31:05.518Z,50.93
2023-05-11T00:36:11.789Z,51.48
2023-05-11T00:41:14.743Z,51.50
2023-05-11T00:46:18.083Z,51.70
2023-05-11T00:51:22.235Z,51.88
2023-05-11T00:56:25.799Z,52.20
2023-05-11T01:01:30.577Z,51.99
2023-05-11T01:07:00.759Z,51.84
2023-05-11T01:12:09.381Z,51.86
2023-05-11T01:17:27.506Z,51.98
2023-05-11T01:22:39.369Z,52.19
2023-05-11T01:27:54.190Z,53.00
2023-05-11T01:33:06.500Z,52.71
2023-05-11T01:38:14.590Z,52.90
2023-05-11T01:43:21.947Z,53.27
2023-05-11T01:48:28.246Z,53.92
2023-05-11T01:53:35.952Z,54.15
2023-05-11T01:58:46.523Z,54.49
2023-05-11T02:03:51.696Z,54.17
2023-05-11T02:08:56.052Z,53.75
2023-05-11T02:13:59.705Z,53.45
2023-05-11T02:19:03.334Z,53.36
2023-05-11T02:24:08.424Z,53.20
2023-05-11T02:29:11.391Z,53.07
2023-05-11T02:34:28.898Z,53.20
2023-05-11T02:39:36.291Z,53.37
2023-05-11T02:44:40.916Z,54.37
2023-05-11T02:49:45.694Z,54.41
2023-05-11T02:54:52.853Z,54.45
2023-05-11T02:59:56.112Z,54.22
2023-05-11T03:04:59.040Z,54.22
2023-05-11T03:10:03.743Z,54.25
2023-05-11T03:15:07.648Z,54.97
2023-05-11T03:20:11.512Z,55.06
2023-05-11T03:25:16.560Z,55.04
2023-05-11T03:30:20.815Z,55.29
2023-05-11T03:35:27.401Z,55.40
2023-05-11T03:40:33.433Z,55.37
2023-05-11T03:45:37.718Z,54.86
2023-05-11T03:50:41.531Z,50.91
2023-05-11T03:55:44.640Z,44.90
2023-05-11T04:00:48.262Z,43.10
2023-05-11T04:05:51.212Z,41.85
2023-05-11T04:10:57.118Z,42.82
2023-05-11T04:16:00.264Z,43.67
2023-05-11T04:21:03.330Z,44.08
2023-05-11T04:26:06.324Z,44.22
2023-05-11T04:31:10.539Z,43.90
2023-05-11T04:36:13.546Z,42.97
2023-05-11T04:41:16.549Z,39.19
2023-05-11T04:46:23.701Z,34.30
2023-05-11T04:51:26.671Z,30.35
2023-05-11T04:56:29.597Z,26.60
2023-05-11T05:01:32.645Z,24.72
2023-05-11T05:06:35.586Z,24.29
2023-05-11T05:11:38.607Z,24.84
2023-05-11T05:16:41.666Z,25.15
2023-05-11T05:21:44.645Z,26.12
2023-05-11T05:26:47.575Z,28.62
2023-05-11T05:31:50.488Z,30.36
2023-05-11T05:36:56.395Z,31.44
2023-05-11T05:41:59.348Z,32.73
2023-05-11T05:47:02.298Z,33.85
2023-05-11T05:52:05.234Z,35.02
2023-05-11T05:57:08.289Z,35.96
2023-05-11T06:02:13.568Z,36.75
2023-05-11T06:07:16.619Z,37.05
2023-05-11T06:12:19.597Z,37.20
2023-05-11T06:17:22.569Z,38.02
2023-05-11T06:22:28.540Z,37.57
2023-05-11T06:27:34.248Z,38.43
2023-05-11T06:32:37.317Z,39.27
2023-05-11T06:37:40.315Z,39.71
2023-05-11T06:42:46.961Z,40.94
2023-05-11T06:47:50.061Z,40.37
2023-05-11T06:52:55.313Z,41.17
2023-05-11T06:57:58.243Z,41.19
2023-05-11T07:03:01.240Z,41.20
2023-05-11T07:08:05.216Z,41.93
2023-05-11T07:13:08.247Z,41.34
2023-05-11T07:18:11.447Z,40.98
2023-05-11T07:23:17.333Z,40.17
2023-05-11T07:28:20.229Z,40.77
2023-05-11T07:33:23.843Z,40.96
2023-05-11T07:38:26.745Z,39.62
2023-05-11T07:43:30.449Z,39.45
2023-05-11T07:48:33.650Z,39.83
2023-05-11T07:53:36.555Z,39.46
2023-05-11T07:58:39.353Z,39.41
2023-05-11T08:03:42.389Z,39.32
2023-05-11T08:08:45.614Z,39.07
2023-05-11T08:13:48.390Z,39.48
2023-05-11T08:18:51.369Z,39.59
2023-05-11T08:23:54.341Z,39.38
2023-05-11T08:28:57.465Z,40.23
2023-05-11T08:34:00.801Z,39.01
2023-05-11T08:39:04.006Z,39.56
2023-05-11T08:44:07.841Z,38.62
2023-05-11T08:49:10.788Z,38.43
2023-05-11T08:54:13.824Z,37.95
2023-05-11T08:59:17.013Z,37.83
2023-05-11T09:04:21.319Z,38.32
2023-05-11T09:09:27.442Z,37.79
2023-05-11T09:14:30.703Z,37.69
2023-05-11T09:19:33.540Z,37.91
2023-05-11T09:24:42.211Z,38.39
2023-05-11T09:29:51.928Z,37.92
2023-05-11T09:34:57.040Z,38.95
2023-05-11T09:40:25.829Z,38.75
2023-05-11T09:45:43.260Z,38.58
2023-05-11T09:50:47.945Z,38.10
2023-05-11T09:55:53.351Z,38.09
2023-05-11T10:00:56.278Z,37.98
2023-05-11T10:06:01.362Z,38.46
2023-05-11T10:11:08.776Z,39.41
2023-05-11T10:16:16.528Z,39.52
2023-05-11T10:21:20.182Z,38.33
2023-05-11T10:26:24.479Z,39.01
2023-05-11T10:31:28.683Z,38.59
2023-05-11T10:36:31.851Z,38.97
2023-05-11T10:42:01.691Z,39.43
2023-05-11T10:47:25.890Z,39.21
2023-05-11T10:52:50.294Z,38.84
2023-05-11T10:58:05.039Z,39.30
2023-05-11T11:03:12.541Z,39.13
2023-05-11T11:08:15.963Z,38.28
2023-05-11T11:13:20.215Z,39.04
2023-05-11T11:18:31.143Z,39.07
2023-05-11T11:23:54.542Z,39.38
2023-05-11T11:28:57.421Z,39.32
2023-05-11T11:34:29.505Z,39.03
2023-05-11T11:39:41.947Z,39.36
2023-05-11T11:44:46.352Z,39.12
2023-05-11T11:49:55.141Z,39.06
2023-05-11T11:55:00.202Z,38.93
2023-05-11T12:00:12.015Z,39.58
2023-05-11T12:05:23.308Z,39.67
2023-05-11T12:10:26.805Z,38.75
2023-05-11T12:15:34.814Z,38.08
2023-05-11T12:20:38.168Z,38.81
2023-05-11T12:25:41.090Z,38.77
2023-05-11T12:30:57.147Z,39.06
2023-05-11T12:36:01.716Z,38.96
2023-05-11T12:41:06.100Z,37.30
2023-05-11T12:46:09.207Z,37.42
2023-05-11T12:51:12.156Z,37.58
2023-05-11T12:56:15.068Z,37.86
2023-05-11T13:01:24.615Z,36.71
2023-05-11T13:06:27.584Z,36.48
2023-05-11T13:11:30.512Z,37.26
2023-05-11T13:16:34.050Z,37.14
2023-05-11T13:21:37.162Z,37.40
2023-05-11T13:26:40.066Z,36.91
2023-05-11T13:31:51.401Z,36.48
2023-05-11T13:36:54.510Z,36.54
2023-05-11T13:41:57.440Z,37.42
2023-05-11T13:47:00.500Z,37.42
2023-05-11T13:52:03.522Z,37.37
2023-05-11T13:57:07.092Z,35.98
2023-05-11T14:02:10.602Z,36.21
2023-05-11T14:07:15.388Z,35.32
2023-05-11T14:12:18.678Z,36.16
2023-05-11T14:17:21.704Z,36.29
2023-05-11T14:22:24.700Z,36.11
2023-05-11T14:27:28.307Z,36.26
2023-05-11T14:32:31.317Z,37.17
2023-05-11T14:37:34.314Z,37.07
2023-05-11T14:42:37.995Z,37.50
2023-05-11T14:47:41.054Z,37.74
2023-05-11T14:52:44.080Z,38.09
2023-05-11T14:57:46.973Z,37.63
2023-05-11T15:02:52.083Z,37.07
2023-05-11T15:07:55.023Z,36.65
2023-05-11T15:12:58.074Z,36.90
2023-05-11T15:18:01.024Z,36.31
2023-05-11T15:23:06.165Z,36.78
2023-05-11T15:28:11.331Z,36.74
2023-05-11T15:33:15.754Z,36.54
2023-05-11T15:38:18.861Z,37.08
2023-05-11T15:43:21.768Z,36.37
2023-05-11T15:48:27.500Z,35.82
2023-05-11T15:53:30.451Z,35.91
2023-05-11T15:58:33.421Z,35.46
2023-05-11T16:03:36.433Z,36.08
2023-05-11T16:08:41.627Z,35.97
2023-05-11T16:13:44.884Z,35.98
2023-05-11T16:18:47.766Z,36.16
2023-05-11T16:23:50.729Z,36.31
2023-05-11T16:28:53.793Z,36.85
2023-05-11T16:33:59.625Z,37.09
2023-05-11T16:39:02.586Z,37.37
2023-05-11T16:44:05.646Z,37.29
2023-05-11T16:49:08.617Z,37.20
2023-05-11T16:54:11.609Z,37.05
2023-05-11T16:59:14.862Z,37.25
2023-05-11T17:04:17.926Z,36.96
2023-05-11T17:09:21.258Z,36.90
2023-05-11T17:14:24.094Z,36.92
2023-05-11T17:19:27.222Z,37.08
2023-05-11T17:24:30.634Z,37.32
2023-05-11T17:29:36.658Z,37.50
2023-05-11T17:34:42.398Z,37.68
2023-05-11T17:39:47.212Z,37.61
2023-05-11T17:44:50.865Z,38.01
2023-05-11T17:49:54.158Z,37.98
2023-05-11T17:54:57.084Z,38.13
2023-05-11T17:59:59.899Z,38.18
2023-05-11T18:05:02.838Z,38.48
2023-05-11T18:10:06.680Z,38.85
2023-05-11T18:15:14.128Z,39.00
2023-05-11T18:20:17.315Z,39.09
2023-05-11T18:25:20.476Z,39.34
2023-05-11T18:30:26.246Z,39.43
2023-05-11T18:35:30.029Z,39.55
2023-05-11T18:40:33.070Z,40.05
2023-05-11T18:45:36.623Z,40.33
2023-05-11T18:50:40.411Z,40.75
2023-05-11T18:55:52.494Z,41.23
2023-05-11T19:00:57.061Z,41.31
2023-05-11T19:06:01.950Z,41.75
2023-05-11T19:11:10.485Z,42.09
2023-05-11T19:16:13.591Z,42.14
2023-05-11T19:21:17.094Z,42.36
2023-05-11T19:26:19.902Z,42.74
2023-05-11T19:31:27.502Z,42.60
2023-05-11T19:36:30.517Z,42.62
2023-05-11T19:41:34.394Z,42.61
2023-05-11T19:46:39.341Z,42.82
2023-05-11T19:51:43.301Z,42.82
2023-05-11T19:56:46.860Z,43.27
2023-05-11T20:01:49.856Z,43.51
2023-05-11T20:06:52.658Z,43.21
2023-05-11T20:11:55.985Z,43.49
2023-05-11T20:16:58.945Z,43.77
2023-05-11T20:22:03.674Z,44.05
2023-05-11T20:27:09.638Z,44.07
2023-05-11T20:32:12.612Z,44.43
2023-05-11T20:37:16.577Z,44.54
2023-05-11T20:42:19.522Z,44.76
2023-05-11T20:47:22.824Z,44.74
2023-05-11T20:52:25.920Z,44.97
2023-05-11T20:57:29.035Z,45.28
2023-05-11T21:02:32.112Z,45.46
2023-05-11T21:07:35.137Z,45.49
2023-05-11T21:12:38.056Z,45.57
2023-05-11T21:17:41.421Z,45.80
2023-05-11T21:22:44.456Z,45.74
2023-05-11T21:27:47.353Z,46.02
2023-05-11T21:32:50.871Z,45.89
2023-05-11T21:37:54.220Z,46.11
2023-05-11T21:43:00.279Z,46.14
2023-05-11T21:48:03.569Z,46.39
2023-05-11T21:53:07.208Z,47.01
2023-05-11T21:58:10.333Z,47.28
2023-05-11T22:03:13.418Z,47.33
2023-05-11T22:08:16.314Z,47.55
2023-05-11T22:13:20.704Z,47.20
2023-05-11T22:18:24.919Z,47.43
2023-05-11T22:23:27.840Z,47.92
2023-05-11T22:28:30.751Z,47.92
2023-05-11T22:33:33.758Z,47.89
2023-05-11T22:38:38.145Z,48.16
2023-05-11T22:43:41.156Z,48.41
2023-05-11T22:48:44.191Z,48.67
2023-05-11T22:53:48.928Z,48.83
2023-05-11T22:58:52.759Z,49.11
2023-05-11T23:03:55.837Z,49.27
2023-05-11T23:08:58.766Z,49.32
2023-05-11T23:14:03.593Z,49.49
2023-05-11T23:19:06.588Z,49.70
2023-05-11T23:24:09.618Z,50.15
2023-05-11T23:29:12.544Z,50.24
2023-05-11T23:34:15.481Z,50.65
2023-05-11T23:39:18.381Z,50.71
2023-05-11T23:44:21.286Z,51.07
2023-05-11T23:49:24.282Z,51.31
2023-05-11T23:54:27.187Z,51.36
2023-05-11T23:59:30.121Z,51.37
